sensor_id;sensor_type;location;lat;lon;timestamp;temperature;humidity
35246;DHT22;21379;50.962;6.960;2022-10-16T00:00:47;15.10;99.90
35246;DHT22;21379;50.962;6.960;2022-10-16T00:03:14;15.10;99.90
35246;DHT22;21379;50.962;6.960;2022-10-16T00:05:42;15.10;99.90
35246;DHT22;21379;50.962;6.960;2022-10-16T00:08:11;15.10;99.90
35246;DHT22;21379;50.962;6.960;2022-10-16T00:10:39;15.10;99.90
35246;DHT22;21379;50.962;6.960;2022-10-16T00:13:06;15.10;99.90
35246;DHT22;21379;50.962;6.960;2022-10-16T00:15:34;15.10;99.90
35246;DHT22;21379;50.962;6.960;2022-10-16T00:18:03;15.10;99.90
35246;DHT22;21379;50.962;6.960;2022-10-16T00:20:30;15.00;99.90
35246;DHT22;21379;50.962;6.960;2022-10-16T00:22:59;14.90;99.90
35246;DHT22;21379;50.962;6.960;2022-10-16T00:25:27;14.90;99.90
35246;DHT22;21379;50.962;6.960;2022-10-16T00:27:54;14.80;99.90
35246;DHT22;21379;50.962;6.960;2022-10-16T00:30:20;14.80;99.90
35246;DHT22;21379;50.962;6.960;2022-10-16T00:32:48;14.70;99.90
35246;DHT22;21379;50.962;6.960;2022-10-16T00:35:15;14.80;99.90
35246;DHT22;21379;50.962;6.960;2022-10-16T00:37:42;14.80;99.90
35246;DHT22;21379;50.962;6.960;2022-10-16T00:40:10;14.70;99.90
35246;DHT22;21379;50.962;6.960;2022-10-16T00:42:38;14.70;99.90
35246;DHT22;21379;50.962;6.960;2022-10-16T00:45:07;14.70;99.90
35246;DHT22;21379;50.962;6.960;2022-10-16T00:47:37;14.70;99.90
35246;DHT22;21379;50.962;6.960;2022-10-16T00:50:09;14.60;99.90
35246;DHT22;21379;50.962;6.960;2022-10-16T00:52:37;14.60;99.90
35246;DHT22;21379;50.962;6.960;2022-10-16T00:55:06;14.60;99.90
35246;DHT22;21379;50.962;6.960;2022-10-16T00:57:35;14.60;99.90
35246;DHT22;21379;50.962;6.960;2022-10-16T01:00:06;14.50;99.90
35246;DHT22;21379;50.962;6.960;2022-10-16T01:02:33;14.60;99.90
35246;DHT22;21379;50.962;6.960;2022-10-16T01:05:01;14.50;99.90
35246;DHT22;21379;50.962;6.960;2022-10-16T01:07:36;14.50;99.90
35246;DHT22;21379;50.962;6.960;2022-10-16T01:10:13;14.50;99.90
35246;DHT22;21379;50.962;6.960;2022-10-16T01:12:46;14.50;99.90
35246;DHT22;21379;50.962;6.960;2022-10-16T01:15:21;14.40;99.90
35246;DHT22;21379;50.962;6.960;2022-10-16T01:17:56;14.40;99.90
35246;DHT22;21379;50.962;6.960;2022-10-16T01:20:27;14.30;99.90
35246;DHT22;21379;50.962;6.960;2022-10-16T01:23:10;14.20;99.90
35246;DHT22;21379;50.962;6.960;2022-10-16T01:28:49;14.20;99.90
35246;DHT22;21379;50.962;6.960;2022-10-16T01:31:19;14.20;99.90
35246;DHT22;21379;50.962;6.960;2022-10-16T01:33:53;14.20;99.90
35246;DHT22;21379;50.962;6.960;2022-10-16T01:36:26;14.20;99.90
35246;DHT22;21379;50.962;6.960;2022-10-16T01:38:56;14.10;99.90
35246;DHT22;21379;50.962;6.960;2022-10-16T01:41:30;14.10;99.90
35246;DHT22;21379;50.962;6.960;2022-10-16T01:44:02;14.20;99.90
35246;DHT22;21379;50.962;6.960;2022-10-16T01:46:33;14.20;99.90
35246;DHT22;21379;50.962;6.960;2022-10-16T01:49:02;14.20;99.90
35246;DHT22;21379;50.962;6.960;2022-10-16T01:51:30;14.20;99.90
35246;DHT22;21379;50.962;6.960;2022-10-16T01:53:59;14.20;99.90
35246;DHT22;21379;50.962;6.960;2022-10-16T01:56:27;14.20;99.90
35246;DHT22;21379;50.962;6.960;2022-10-16T01:59:00;14.20;99.90
35246;DHT22;21379;50.962;6.960;2022-10-16T02:01:30;14.20;99.90
35246;DHT22;21379;50.962;6.960;2022-10-16T02:04:03;14.30;99.90
35246;DHT22;21379;50.962;6.960;2022-10-16T02:06:32;14.30;99.90
35246;DHT22;21379;50.962;6.960;2022-10-16T02:08:59;14.40;99.90
35246;DHT22;21379;50.962;6.960;2022-10-16T02:11:26;14.40;99.90
35246;DHT22;21379;50.962;6.960;2022-10-16T02:13:55;14.40;99.90
35246;DHT22;21379;50.962;6.960;2022-10-16T02:16:33;14.50;99.90
35246;DHT22;21379;50.962;6.960;2022-10-16T02:19:00;14.60;99.90
35246;DHT22;21379;50.962;6.960;2022-10-16T02:21:31;14.60;99.90
35246;DHT22;21379;50.962;6.960;2022-10-16T02:24:03;14.60;99.90
35246;DHT22;21379;50.962;6.960;2022-10-16T02:26:37;14.70;99.90
35246;DHT22;21379;50.962;6.960;2022-10-16T02:29:10;14.70;99.90
35246;DHT22;21379;50.962;6.960;2022-10-16T02:31:43;14.70;99.90
35246;DHT22;21379;50.962;6.960;2022-10-16T02:34:13;14.70;99.90
35246;DHT22;21379;50.962;6.960;2022-10-16T02:36:42;14.70;99.90
35246;DHT22;21379;50.962;6.960;2022-10-16T02:39:10;14.70;99.90
35246;DHT22;21379;50.962;6.960;2022-10-16T02:41:38;14.70;99.90
35246;DHT22;21379;50.962;6.960;2022-10-16T02:44:05;14.70;99.90
35246;DHT22;21379;50.962;6.960;2022-10-16T02:46:31;14.70;99.90
35246;DHT22;21379;50.962;6.960;2022-10-16T02:49:00;14.70;99.90
35246;DHT22;21379;50.962;6.960;2022-10-16T02:51:26;14.70;99.90
35246;DHT22;21379;50.962;6.960;2022-10-16T02:53:53;14.70;99.90
35246;DHT22;21379;50.962;6.960;2022-10-16T02:56:20;14.70;99.90
35246;DHT22;21379;50.962;6.960;2022-10-16T02:58:47;14.70;99.90
35246;DHT22;21379;50.962;6.960;2022-10-16T03:01:14;14.80;99.90
35246;DHT22;21379;50.962;6.960;2022-10-16T03:03:42;14.80;99.90
35246;DHT22;21379;50.962;6.960;2022-10-16T03:06:11;14.80;99.90
35246;DHT22;21379;50.962;6.960;2022-10-16T03:08:38;14.80;99.90
35246;DHT22;21379;50.962;6.960;2022-10-16T03:11:05;14.80;99.90
35246;DHT22;21379;50.962;6.960;2022-10-16T03:13:32;14.70;99.90
35246;DHT22;21379;50.962;6.960;2022-10-16T03:15:59;14.80;99.90
35246;DHT22;21379;50.962;6.960;2022-10-16T03:18:25;14.70;99.90
35246;DHT22;21379;50.962;6.960;2022-10-16T03:20:52;14.70;99.90
35246;DHT22;21379;50.962;6.960;2022-10-16T03:23:20;14.70;99.90
35246;DHT22;21379;50.962;6.960;2022-10-16T03:25:47;14.70;99.90
35246;DHT22;21379;50.962;6.960;2022-10-16T03:28:14;14.60;99.90
35246;DHT22;21379;50.962;6.960;2022-10-16T03:30:42;14.50;99.90
35246;DHT22;21379;50.962;6.960;2022-10-16T03:33:09;14.50;99.90
35246;DHT22;21379;50.962;6.960;2022-10-16T03:35:36;14.50;99.90
35246;DHT22;21379;50.962;6.960;2022-10-16T03:38:03;14.50;99.90
35246;DHT22;21379;50.962;6.960;2022-10-16T03:40:31;14.50;99.90
35246;DHT22;21379;50.962;6.960;2022-10-16T03:42:58;14.50;99.90
35246;DHT22;21379;50.962;6.960;2022-10-16T03:45:25;14.60;99.90
35246;DHT22;21379;50.962;6.960;2022-10-16T03:47:53;14.60;99.90
35246;DHT22;21379;50.962;6.960;2022-10-16T03:50:19;14.70;99.90
35246;DHT22;21379;50.962;6.960;2022-10-16T03:52:46;14.70;99.90
35246;DHT22;21379;50.962;6.960;2022-10-16T03:55:13;14.70;99.90
35246;DHT22;21379;50.962;6.960;2022-10-16T03:57:41;14.70;99.90
35246;DHT22;21379;50.962;6.960;2022-10-16T04:00:10;14.70;99.90
35246;DHT22;21379;50.962;6.960;2022-10-16T04:02:37;14.80;99.90
35246;DHT22;21379;50.962;6.960;2022-10-16T04:05:04;14.70;99.90
35246;DHT22;21379;50.962;6.960;2022-10-16T04:07:31;14.80;99.90
35246;DHT22;21379;50.962;6.960;2022-10-16T04:09:58;14.80;99.90
35246;DHT22;21379;50.962;6.960;2022-10-16T04:12:25;14.80;99.90
35246;DHT22;21379;50.962;6.960;2022-10-16T04:14:53;14.80;99.90
35246;DHT22;21379;50.962;6.960;2022-10-16T04:17:20;14.80;99.90
35246;DHT22;21379;50.962;6.960;2022-10-16T04:19:47;14.80;99.90
35246;DHT22;21379;50.962;6.960;2022-10-16T04:22:14;14.70;99.90
35246;DHT22;21379;50.962;6.960;2022-10-16T04:24:41;14.80;99.90
35246;DHT22;21379;50.962;6.960;2022-10-16T04:27:08;14.80;99.90
35246;DHT22;21379;50.962;6.960;2022-10-16T04:29:34;14.80;99.90
35246;DHT22;21379;50.962;6.960;2022-10-16T04:32:03;14.70;99.90
35246;DHT22;21379;50.962;6.960;2022-10-16T04:34:29;14.70;99.90
35246;DHT22;21379;50.962;6.960;2022-10-16T04:36:56;14.70;99.90
35246;DHT22;21379;50.962;6.960;2022-10-16T04:39:23;14.70;99.90
35246;DHT22;21379;50.962;6.960;2022-10-16T04:41:50;14.70;99.90
35246;DHT22;21379;50.962;6.960;2022-10-16T04:44:17;14.70;99.90
35246;DHT22;21379;50.962;6.960;2022-10-16T04:46:43;14.70;99.90
35246;DHT22;21379;50.962;6.960;2022-10-16T04:49:12;14.70;99.90
35246;DHT22;21379;50.962;6.960;2022-10-16T04:51:39;14.60;99.90
35246;DHT22;21379;50.962;6.960;2022-10-16T04:54:06;14.60;99.90
35246;DHT22;21379;50.962;6.960;2022-10-16T04:56:32;14.60;99.90
35246;DHT22;21379;50.962;6.960;2022-10-16T04:59:05;14.70;99.90
35246;DHT22;21379;50.962;6.960;2022-10-16T05:01:32;14.60;99.90
35246;DHT22;21379;50.962;6.960;2022-10-16T05:03:59;14.70;99.90
35246;DHT22;21379;50.962;6.960;2022-10-16T05:06:27;14.70;99.90
35246;DHT22;21379;50.962;6.960;2022-10-16T05:08:54;14.60;99.90
35246;DHT22;21379;50.962;6.960;2022-10-16T05:11:21;14.60;99.90
35246;DHT22;21379;50.962;6.960;2022-10-16T05:13:47;14.60;99.90
35246;DHT22;21379;50.962;6.960;2022-10-16T05:16:14;14.70;99.90
35246;DHT22;21379;50.962;6.960;2022-10-16T05:18:41;14.60;99.90
35246;DHT22;21379;50.962;6.960;2022-10-16T05:21:08;14.60;99.90
35246;DHT22;21379;50.962;6.960;2022-10-16T05:23:36;14.70;99.90
35246;DHT22;21379;50.962;6.960;2022-10-16T05:26:03;14.70;99.90
35246;DHT22;21379;50.962;6.960;2022-10-16T05:28:30;14.70;99.90
35246;DHT22;21379;50.962;6.960;2022-10-16T05:30:57;14.70;99.90
35246;DHT22;21379;50.962;6.960;2022-10-16T05:33:25;14.70;99.90
35246;DHT22;21379;50.962;6.960;2022-10-16T05:35:52;14.70;99.90
35246;DHT22;21379;50.962;6.960;2022-10-16T05:38:19;14.70;99.90
35246;DHT22;21379;50.962;6.960;2022-10-16T05:40:52;14.70;99.90
35246;DHT22;21379;50.962;6.960;2022-10-16T05:43:19;14.70;99.90
35246;DHT22;21379;50.962;6.960;2022-10-16T05:45:53;14.70;99.90
35246;DHT22;21379;50.962;6.960;2022-10-16T05:48:20;14.70;99.90
35246;DHT22;21379;50.962;6.960;2022-10-16T05:50:47;14.70;99.90
35246;DHT22;21379;50.962;6.960;2022-10-16T05:53:14;14.70;99.90
35246;DHT22;21379;50.962;6.960;2022-10-16T05:55:41;14.70;99.90
35246;DHT22;21379;50.962;6.960;2022-10-16T05:58:10;14.70;99.90
35246;DHT22;21379;50.962;6.960;2022-10-16T06:00:37;14.60;99.90
35246;DHT22;21379;50.962;6.960;2022-10-16T06:03:03;14.60;99.90
35246;DHT22;21379;50.962;6.960;2022-10-16T06:05:32;14.60;99.90
35246;DHT22;21379;50.962;6.960;2022-10-16T06:07:59;14.60;99.90
35246;DHT22;21379;50.962;6.960;2022-10-16T06:10:26;14.50;99.90
35246;DHT22;21379;50.962;6.960;2022-10-16T06:12:54;14.40;99.90
35246;DHT22;21379;50.962;6.960;2022-10-16T06:15:22;14.40;99.90
35246;DHT22;21379;50.962;6.960;2022-10-16T06:17:49;14.40;99.90
35246;DHT22;21379;50.962;6.960;2022-10-16T06:20:16;14.40;99.90
35246;DHT22;21379;50.962;6.960;2022-10-16T06:22:43;14.40;99.90
35246;DHT22;21379;50.962;6.960;2022-10-16T06:25:09;14.40;99.90
35246;DHT22;21379;50.962;6.960;2022-10-16T06:27:39;14.40;99.90
35246;DHT22;21379;50.962;6.960;2022-10-16T06:30:07;14.40;99.90
35246;DHT22;21379;50.962;6.960;2022-10-16T06:32:36;14.50;99.90
35246;DHT22;21379;50.962;6.960;2022-10-16T06:35:03;14.50;99.90
35246;DHT22;21379;50.962;6.960;2022-10-16T06:37:30;14.50;99.90
35246;DHT22;21379;50.962;6.960;2022-10-16T06:39:57;14.60;99.90
35246;DHT22;21379;50.962;6.960;2022-10-16T06:42:23;14.70;99.90
35246;DHT22;21379;50.962;6.960;2022-10-16T06:44:50;14.80;99.90
35246;DHT22;21379;50.962;6.960;2022-10-16T06:47:17;14.80;99.90
35246;DHT22;21379;50.962;6.960;2022-10-16T06:49:45;14.90;99.90
35246;DHT22;21379;50.962;6.960;2022-10-16T06:52:12;14.90;99.90
35246;DHT22;21379;50.962;6.960;2022-10-16T06:54:39;15.00;99.90
35246;DHT22;21379;50.962;6.960;2022-10-16T06:57:06;15.10;99.90
35246;DHT22;21379;50.962;6.960;2022-10-16T06:59:33;15.10;99.90
35246;DHT22;21379;50.962;6.960;2022-10-16T07:02:00;15.20;99.90
35246;DHT22;21379;50.962;6.960;2022-10-16T07:04:26;15.30;99.90
35246;DHT22;21379;50.962;6.960;2022-10-16T07:06:54;15.40;99.90
35246;DHT22;21379;50.962;6.960;2022-10-16T07:09:21;15.40;99.90
35246;DHT22;21379;50.962;6.960;2022-10-16T07:11:48;15.50;99.90
35246;DHT22;21379;50.962;6.960;2022-10-16T07:14:17;15.50;99.90
35246;DHT22;21379;50.962;6.960;2022-10-16T07:16:44;15.60;99.90
35246;DHT22;21379;50.962;6.960;2022-10-16T07:19:11;15.60;99.90
35246;DHT22;21379;50.962;6.960;2022-10-16T07:21:40;15.70;99.90
35246;DHT22;21379;50.962;6.960;2022-10-16T07:24:12;15.80;99.90
35246;DHT22;21379;50.962;6.960;2022-10-16T07:26:39;15.80;99.90
35246;DHT22;21379;50.962;6.960;2022-10-16T07:29:08;15.80;99.90
35246;DHT22;21379;50.962;6.960;2022-10-16T07:31:37;15.80;99.90
35246;DHT22;21379;50.962;6.960;2022-10-16T07:34:05;15.90;99.90
35246;DHT22;21379;50.962;6.960;2022-10-16T07:36:32;15.90;99.90
35246;DHT22;21379;50.962;6.960;2022-10-16T07:38:59;15.90;99.90
35246;DHT22;21379;50.962;6.960;2022-10-16T07:41:28;15.90;99.90
35246;DHT22;21379;50.962;6.960;2022-10-16T07:43:55;15.90;99.90
35246;DHT22;21379;50.962;6.960;2022-10-16T07:46:25;16.00;99.90
35246;DHT22;21379;50.962;6.960;2022-10-16T07:48:52;16.00;99.90
35246;DHT22;21379;50.962;6.960;2022-10-16T07:51:21;16.00;99.90
35246;DHT22;21379;50.962;6.960;2022-10-16T07:53:49;16.00;99.90
35246;DHT22;21379;50.962;6.960;2022-10-16T07:56:17;16.00;99.90
35246;DHT22;21379;50.962;6.960;2022-10-16T07:58:46;16.10;99.90
35246;DHT22;21379;50.962;6.960;2022-10-16T08:01:15;16.10;99.90
35246;DHT22;21379;50.962;6.960;2022-10-16T08:03:43;16.10;99.90
35246;DHT22;21379;50.962;6.960;2022-10-16T08:06:10;16.20;99.90
35246;DHT22;21379;50.962;6.960;2022-10-16T08:08:37;16.20;99.90
35246;DHT22;21379;50.962;6.960;2022-10-16T08:11:04;16.30;99.90
35246;DHT22;21379;50.962;6.960;2022-10-16T08:13:31;16.40;99.90
35246;DHT22;21379;50.962;6.960;2022-10-16T08:15:59;16.50;99.90
35246;DHT22;21379;50.962;6.960;2022-10-16T08:18:26;16.50;99.90
35246;DHT22;21379;50.962;6.960;2022-10-16T08:20:57;16.70;99.90
35246;DHT22;21379;50.962;6.960;2022-10-16T08:23:25;16.90;99.90
35246;DHT22;21379;50.962;6.960;2022-10-16T08:25:53;17.10;99.90
35246;DHT22;21379;50.962;6.960;2022-10-16T08:28:20;17.30;99.90
35246;DHT22;21379;50.962;6.960;2022-10-16T08:30:47;17.50;99.90
35246;DHT22;21379;50.962;6.960;2022-10-16T08:33:15;17.70;99.90
35246;DHT22;21379;50.962;6.960;2022-10-16T08:35:42;17.80;99.90
35246;DHT22;21379;50.962;6.960;2022-10-16T08:38:11;17.90;99.90
35246;DHT22;21379;50.962;6.960;2022-10-16T08:40:38;18.00;99.90
35246;DHT22;21379;50.962;6.960;2022-10-16T08:43:21;18.10;99.90
35246;DHT22;21379;50.962;6.960;2022-10-16T08:46:11;18.20;99.90
35246;DHT22;21379;50.962;6.960;2022-10-16T08:48:45;18.30;99.90
35246;DHT22;21379;50.962;6.960;2022-10-16T08:51:20;18.50;99.90
35246;DHT22;21379;50.962;6.960;2022-10-16T08:53:52;18.70;99.90
35246;DHT22;21379;50.962;6.960;2022-10-16T08:56:21;18.80;99.90
35246;DHT22;21379;50.962;6.960;2022-10-16T08:58:48;19.00;99.90
35246;DHT22;21379;50.962;6.960;2022-10-16T09:01:17;19.10;99.90
35246;DHT22;21379;50.962;6.960;2022-10-16T09:04:07;19.40;99.90
35246;DHT22;21379;50.962;6.960;2022-10-16T09:06:45;19.70;99.90
35246;DHT22;21379;50.962;6.960;2022-10-16T09:09:32;19.90;99.90
35246;DHT22;21379;50.962;6.960;2022-10-16T09:12:09;19.90;99.90
35246;DHT22;21379;50.962;6.960;2022-10-16T09:14:50;20.30;99.90
35246;DHT22;21379;50.962;6.960;2022-10-16T09:17:37;20.40;99.90
35246;DHT22;21379;50.962;6.960;2022-10-16T09:20:18;20.70;99.90
35246;DHT22;21379;50.962;6.960;2022-10-16T09:22:46;21.00;99.90
35246;DHT22;21379;50.962;6.960;2022-10-16T09:25:14;21.40;99.90
35246;DHT22;21379;50.962;6.960;2022-10-16T09:27:43;21.80;99.90
35246;DHT22;21379;50.962;6.960;2022-10-16T09:30:13;21.30;99.90
35246;DHT22;21379;50.962;6.960;2022-10-16T09:32:42;21.40;99.90
35246;DHT22;21379;50.962;6.960;2022-10-16T09:35:15;21.40;99.90
35246;DHT22;21379;50.962;6.960;2022-10-16T09:37:44;21.60;99.90
35246;DHT22;21379;50.962;6.960;2022-10-16T09:40:13;21.60;99.90
35246;DHT22;21379;50.962;6.960;2022-10-16T09:42:40;21.20;99.90
35246;DHT22;21379;50.962;6.960;2022-10-16T09:45:20;20.70;99.90
35246;DHT22;21379;50.962;6.960;2022-10-16T09:47:48;20.40;99.90
35246;DHT22;21379;50.962;6.960;2022-10-16T09:50:24;20.20;99.90
35246;DHT22;21379;50.962;6.960;2022-10-16T09:53:03;20.40;99.90
35246;DHT22;21379;50.962;6.960;2022-10-16T09:55:30;20.50;99.90
35246;DHT22;21379;50.962;6.960;2022-10-16T09:57:57;20.50;99.90
35246;DHT22;21379;50.962;6.960;2022-10-16T10:00:24;20.20;99.90
35246;DHT22;21379;50.962;6.960;2022-10-16T10:02:52;20.30;99.90
35246;DHT22;21379;50.962;6.960;2022-10-16T10:05:24;20.30;99.90
35246;DHT22;21379;50.962;6.960;2022-10-16T10:07:56;20.00;99.90
35246;DHT22;21379;50.962;6.960;2022-10-16T10:10:25;20.00;99.90
35246;DHT22;21379;50.962;6.960;2022-10-16T10:12:53;19.70;99.90
35246;DHT22;21379;50.962;6.960;2022-10-16T10:15:20;19.90;99.90
35246;DHT22;21379;50.962;6.960;2022-10-16T10:17:50;19.90;99.90
35246;DHT22;21379;50.962;6.960;2022-10-16T10:20:27;20.00;99.90
35246;DHT22;21379;50.962;6.960;2022-10-16T10:22:55;19.90;99.90
35246;DHT22;21379;50.962;6.960;2022-10-16T10:25:36;20.00;99.90
35246;DHT22;21379;50.962;6.960;2022-10-16T10:31:10;20.30;99.90
35246;DHT22;21379;50.962;6.960;2022-10-16T10:33:44;20.10;99.90
35246;DHT22;21379;50.962;6.960;2022-10-16T10:36:22;20.20;99.90
35246;DHT22;21379;50.962;6.960;2022-10-16T10:38:51;20.30;99.90
35246;DHT22;21379;50.962;6.960;2022-10-16T10:44:18;20.20;99.90
35246;DHT22;21379;50.962;6.960;2022-10-16T10:46:50;20.30;99.90
35246;DHT22;21379;50.962;6.960;2022-10-16T10:49:31;20.30;99.90
35246;DHT22;21379;50.962;6.960;2022-10-16T10:52:13;20.30;99.90
35246;DHT22;21379;50.962;6.960;2022-10-16T10:54:54;20.10;99.90
35246;DHT22;21379;50.962;6.960;2022-10-16T10:57:29;20.30;99.90
35246;DHT22;21379;50.962;6.960;2022-10-16T11:00:05;20.60;99.90
35246;DHT22;21379;50.962;6.960;2022-10-16T11:02:38;20.50;99.90
35246;DHT22;21379;50.962;6.960;2022-10-16T11:05:34;20.30;99.90
35246;DHT22;21379;50.962;6.960;2022-10-16T11:08:10;20.50;99.90
35246;DHT22;21379;50.962;6.960;2022-10-16T11:10:44;20.30;99.90
35246;DHT22;21379;50.962;6.960;2022-10-16T11:13:26;20.40;99.90
35246;DHT22;21379;50.962;6.960;2022-10-16T11:15:58;20.40;99.90
35246;DHT22;21379;50.962;6.960;2022-10-16T11:18:30;20.40;99.90
35246;DHT22;21379;50.962;6.960;2022-10-16T11:21:02;20.40;99.90
35246;DHT22;21379;50.962;6.960;2022-10-16T11:23:37;20.40;99.90
35246;DHT22;21379;50.962;6.960;2022-10-16T11:26:05;20.50;99.90
35246;DHT22;21379;50.962;6.960;2022-10-16T11:28:38;20.60;99.90
35246;DHT22;21379;50.962;6.960;2022-10-16T11:31:10;21.00;99.90
35246;DHT22;21379;50.962;6.960;2022-10-16T11:33:42;20.70;99.90
35246;DHT22;21379;50.962;6.960;2022-10-16T11:36:14;20.60;99.90
35246;DHT22;21379;50.962;6.960;2022-10-16T11:38:50;20.50;99.90
35246;DHT22;21379;50.962;6.960;2022-10-16T11:41:24;20.60;99.90
35246;DHT22;21379;50.962;6.960;2022-10-16T11:44:00;20.50;99.90
35246;DHT22;21379;50.962;6.960;2022-10-16T11:46:31;20.50;99.90
35246;DHT22;21379;50.962;6.960;2022-10-16T11:49:06;20.50;99.90
35246;DHT22;21379;50.962;6.960;2022-10-16T11:51:39;20.40;99.90
35246;DHT22;21379;50.962;6.960;2022-10-16T11:54:17;20.30;99.90
35246;DHT22;21379;50.962;6.960;2022-10-16T11:56:48;20.30;99.90
35246;DHT22;21379;50.962;6.960;2022-10-16T11:59:22;20.40;99.90
35246;DHT22;21379;50.962;6.960;2022-10-16T12:01:54;20.50;99.90
35246;DHT22;21379;50.962;6.960;2022-10-16T12:04:28;20.60;99.90
35246;DHT22;21379;50.962;6.960;2022-10-16T12:07:03;20.70;99.90
35246;DHT22;21379;50.962;6.960;2022-10-16T12:09:35;20.90;99.90
35246;DHT22;21379;50.962;6.960;2022-10-16T12:12:03;21.10;99.90
35246;DHT22;21379;50.962;6.960;2022-10-16T12:14:36;21.00;99.90
35246;DHT22;21379;50.962;6.960;2022-10-16T12:17:24;21.00;99.90
35246;DHT22;21379;50.962;6.960;2022-10-16T12:19:59;20.80;99.90
35246;DHT22;21379;50.962;6.960;2022-10-16T12:22:28;21.10;99.90
35246;DHT22;21379;50.962;6.960;2022-10-16T12:24:57;21.00;99.90
35246;DHT22;21379;50.962;6.960;2022-10-16T12:27:28;21.00;99.90
35246;DHT22;21379;50.962;6.960;2022-10-16T12:29:56;21.00;99.90
35246;DHT22;21379;50.962;6.960;2022-10-16T12:32:29;21.00;99.90
35246;DHT22;21379;50.962;6.960;2022-10-16T12:34:57;21.20;99.90
35246;DHT22;21379;50.962;6.960;2022-10-16T12:37:28;21.40;99.90
35246;DHT22;21379;50.962;6.960;2022-10-16T12:39:58;21.30;99.90
35246;DHT22;21379;50.962;6.960;2022-10-16T12:42:33;21.40;99.90
35246;DHT22;21379;50.962;6.960;2022-10-16T12:45:00;21.40;99.90
35246;DHT22;21379;50.962;6.960;2022-10-16T12:47:47;21.40;99.90
35246;DHT22;21379;50.962;6.960;2022-10-16T12:50:35;21.40;99.90
35246;DHT22;21379;50.962;6.960;2022-10-16T12:53:03;21.40;99.90
35246;DHT22;21379;50.962;6.960;2022-10-16T12:55:41;21.00;99.90
35246;DHT22;21379;50.962;6.960;2022-10-16T12:58:20;20.90;99.90
35246;DHT22;21379;50.962;6.960;2022-10-16T13:00:57;20.90;99.90
35246;DHT22;21379;50.962;6.960;2022-10-16T13:03:53;20.80;99.90
35246;DHT22;21379;50.962;6.960;2022-10-16T13:06:33;20.70;99.90
35246;DHT22;21379;50.962;6.960;2022-10-16T13:09:20;20.60;99.90
35246;DHT22;21379;50.962;6.960;2022-10-16T13:12:14;20.50;99.90
35246;DHT22;21379;50.962;6.960;2022-10-16T13:14:54;20.50;99.90
35246;DHT22;21379;50.962;6.960;2022-10-16T13:17:30;20.60;99.90
35246;DHT22;21379;50.962;6.960;2022-10-16T13:20:10;20.70;99.90
35246;DHT22;21379;50.962;6.960;2022-10-16T13:22:48;20.70;99.90
35246;DHT22;21379;50.962;6.960;2022-10-16T13:25:24;20.80;99.90
35246;DHT22;21379;50.962;6.960;2022-10-16T13:27:56;20.60;99.90
35246;DHT22;21379;50.962;6.960;2022-10-16T13:30:25;20.60;99.90
35246;DHT22;21379;50.962;6.960;2022-10-16T13:32:59;20.60;99.90
35246;DHT22;21379;50.962;6.960;2022-10-16T13:35:28;20.40;99.90
35246;DHT22;21379;50.962;6.960;2022-10-16T13:38:11;20.50;99.90
35246;DHT22;21379;50.962;6.960;2022-10-16T13:40:49;20.50;99.90
35246;DHT22;21379;50.962;6.960;2022-10-16T13:43:18;20.60;99.90
35246;DHT22;21379;50.962;6.960;2022-10-16T13:45:54;20.70;99.90
35246;DHT22;21379;50.962;6.960;2022-10-16T13:48:20;20.80;99.90
35246;DHT22;21379;50.962;6.960;2022-10-16T13:50:59;20.90;99.90
35246;DHT22;21379;50.962;6.960;2022-10-16T13:53:26;20.90;99.90
35246;DHT22;21379;50.962;6.960;2022-10-16T13:55:52;21.00;99.90
35246;DHT22;21379;50.962;6.960;2022-10-16T13:58:21;21.20;99.90
35246;DHT22;21379;50.962;6.960;2022-10-16T14:00:56;21.40;99.90
35246;DHT22;21379;50.962;6.960;2022-10-16T14:03:24;21.40;99.90
35246;DHT22;21379;50.962;6.960;2022-10-16T14:05:54;21.40;99.90
35246;DHT22;21379;50.962;6.960;2022-10-16T14:08:22;21.20;99.90
35246;DHT22;21379;50.962;6.960;2022-10-16T14:10:52;21.10;99.90
35246;DHT22;21379;50.962;6.960;2022-10-16T14:13:26;20.90;99.90
35246;DHT22;21379;50.962;6.960;2022-10-16T14:15:54;20.80;99.90
35246;DHT22;21379;50.962;6.960;2022-10-16T14:18:27;20.70;99.90
35246;DHT22;21379;50.962;6.960;2022-10-16T14:20:54;20.60;99.90
35246;DHT22;21379;50.962;6.960;2022-10-16T14:23:23;20.50;99.90
35246;DHT22;21379;50.962;6.960;2022-10-16T14:26:06;20.40;99.90
35246;DHT22;21379;50.962;6.960;2022-10-16T14:28:35;20.30;99.90
35246;DHT22;21379;50.962;6.960;2022-10-16T14:31:17;20.30;99.90
35246;DHT22;21379;50.962;6.960;2022-10-16T14:33:50;20.20;99.90
35246;DHT22;21379;50.962;6.960;2022-10-16T14:36:17;20.20;99.90
35246;DHT22;21379;50.962;6.960;2022-10-16T14:38:50;20.10;99.90
35246;DHT22;21379;50.962;6.960;2022-10-16T14:41:20;20.10;99.90
35246;DHT22;21379;50.962;6.960;2022-10-16T14:43:51;20.20;99.90
35246;DHT22;21379;50.962;6.960;2022-10-16T14:46:20;20.20;99.90
35246;DHT22;21379;50.962;6.960;2022-10-16T14:48:54;20.20;99.90
35246;DHT22;21379;50.962;6.960;2022-10-16T14:51:22;20.20;99.90
35246;DHT22;21379;50.962;6.960;2022-10-16T14:53:49;20.20;99.90
35246;DHT22;21379;50.962;6.960;2022-10-16T14:56:19;20.20;99.90
35246;DHT22;21379;50.962;6.960;2022-10-16T14:58:46;20.30;99.90
35246;DHT22;21379;50.962;6.960;2022-10-16T15:01:15;20.30;99.90
35246;DHT22;21379;50.962;6.960;2022-10-16T15:03:42;20.30;99.90
35246;DHT22;21379;50.962;6.960;2022-10-16T15:06:10;20.20;99.90
35246;DHT22;21379;50.962;6.960;2022-10-16T15:08:38;20.10;99.90
35246;DHT22;21379;50.962;6.960;2022-10-16T15:11:07;20.00;99.90
35246;DHT22;21379;50.962;6.960;2022-10-16T15:13:36;20.00;99.90
35246;DHT22;21379;50.962;6.960;2022-10-16T15:16:03;19.90;99.90
35246;DHT22;21379;50.962;6.960;2022-10-16T15:18:31;19.80;99.90
35246;DHT22;21379;50.962;6.960;2022-10-16T15:20:58;19.80;99.90
35246;DHT22;21379;50.962;6.960;2022-10-16T15:23:25;19.70;99.90
35246;DHT22;21379;50.962;6.960;2022-10-16T15:25:53;19.70;99.90
35246;DHT22;21379;50.962;6.960;2022-10-16T15:28:21;19.70;99.90
35246;DHT22;21379;50.962;6.960;2022-10-16T15:30:50;19.60;99.90
35246;DHT22;21379;50.962;6.960;2022-10-16T15:33:19;19.60;99.90
35246;DHT22;21379;50.962;6.960;2022-10-16T15:35:48;19.60;99.90
35246;DHT22;21379;50.962;6.960;2022-10-16T15:38:17;19.50;99.90
35246;DHT22;21379;50.962;6.960;2022-10-16T15:40:45;19.50;99.90
35246;DHT22;21379;50.962;6.960;2022-10-16T15:43:12;19.40;99.90
35246;DHT22;21379;50.962;6.960;2022-10-16T15:45:39;19.30;99.90
35246;DHT22;21379;50.962;6.960;2022-10-16T15:48:08;19.30;99.90
35246;DHT22;21379;50.962;6.960;2022-10-16T15:50:37;19.20;99.90
35246;DHT22;21379;50.962;6.960;2022-10-16T15:53:06;19.20;99.90
35246;DHT22;21379;50.962;6.960;2022-10-16T15:55:33;19.10;99.90
35246;DHT22;21379;50.962;6.960;2022-10-16T15:58:03;19.10;99.90